Thành phố Hồ Chí Minh, Việt Nam

07:15 AM ICT vào 23 Tháng chín, 2014 (GMT +0700)
Tansonnhat | Change Station
CLOSE
Current Station
Airport
Location: Ho Chi Minh,
Elevation: 62 ft
Nearby Weather Stations

Elev 62 ft 10.82 °N, 106.67 °E | Updated 15 minutes ago

Scattered Clouds
Có Mây Rải Rác
81 ° F
Feels Like 86 ° F
N
5
Gió Thay đổi Gió from Nam - Tây Nam

Hôm Nay
High -- | Low -- ° F
--% Chance of Precip.
Yesterday
High -- | Low -- ° F
Precip. -- in
5:42 AM 5:49 PM
Lưỡi liềm già, 1% visible
Áp Suất 29.83 in
Tầm Nhìn Xa 5.0 Dặm (miles)
Mây Có Mây Rải Rác 1700 ft
HeatIndex 86 ° F
Ðiểm Sương 75 ° F
Ðộ Ẩm 84%
Rainfall 0.00 in
Snow Depth Not available.
UV 0 out of 12
Pollen Not available.
Air Quality Not available.
Flu Activity Not available.
METAR VVTS 230000Z 21004KT 8000 SCT017 27/24 Q1010 NOSIG

More Conditions Fewer Conditions

Áp Suất 29.83 in
Tầm Nhìn Xa 5.0 Dặm (miles)
Mây Có Mây Rải Rác 1700 ft
HeatIndex 86 ° F
Ðiểm Sương 75 ° F
Ðộ Ẩm 84%
Rainfall 0.00 in
Snow Depth Not available.
UV 0 out of 12
Pollen Not available.
Air Quality Not available.
Flu Activity Not available.
METAR VVTS 230000Z 21004KT 8000 SCT017 27/24 Q1010 NOSIG

More Conditions Fewer Conditions

10-Day Weather Forecast

Almanac

Thiên văn học

Sep. 23, 2014 Rise Set
Actual Time 5:42 AM ICT 5:49 PM ICT
Civil Twilight 5:21 AM ICT 6:10 PM ICT
Nautical Twilight 4:57 AM ICT 6:34 PM ICT
Astronomical Twilight 4:32 AM ICT 6:58 PM ICT
Mặt trăng 4:43 AM ICT 5:08 PM ICT
Length Of Visible Light 12h 48m
Độ dài của Ngày
12h 06m
Tomorrow will be 0m 36s shorter.
Lưỡi liềm già, 1% of the Moon is Illuminated
Sep 22
Lưỡi liềm già
Sep 24
New
Oct 1
Trăng Non
Oct 8
Trăng tròn
Oct 15
Bán nguyệt

Yesterday's Extremes

Country Highs Country Lows

Community

WunderPhotos

Upload Photos

1,755,562 photos uploaded!

Nearby

Ðộ Sâu Tuyết

Not available.

Earthquake Activity

City Distance Mag. Time & Date
No recent earthquake activity has been reported nearby.
Minimum magnitude displayed is 2.5.

Coastal Water Temperatures

Khu Vực Nhiệt Ðộ
No Stations Reporting

Nearby Weather Stations